createdAt,value
2017-04-26T00:00:07.335Z,0
2017-04-26T00:00:47.850Z,0
2017-04-26T00:01:28.373Z,0
2017-04-26T00:02:08.901Z,0
2017-04-26T00:02:49.418Z,0
2017-04-26T00:03:29.932Z,0
2017-04-26T00:04:10.442Z,0
2017-04-26T00:04:50.959Z,0
2017-04-26T00:05:31.485Z,0
2017-04-26T00:06:12.006Z,0
2017-04-26T00:06:52.531Z,0
2017-04-26T00:07:33.089Z,0
2017-04-26T00:08:13.603Z,0
2017-04-26T00:08:54.125Z,0
2017-04-26T00:09:34.647Z,0
2017-04-26T00:10:15.170Z,0
2017-04-26T00:10:55.695Z,0
2017-04-26T00:11:36.225Z,0
2017-04-26T00:12:16.736Z,0
2017-04-26T00:12:57.253Z,0
2017-04-26T00:13:37.776Z,0
2017-04-26T00:14:18.292Z,0
2017-04-26T00:14:58.819Z,0
2017-04-26T00:15:39.341Z,0
2017-04-26T00:16:19.862Z,0
2017-04-26T00:17:00.393Z,0
2017-04-26T00:17:40.911Z,0
2017-04-26T00:18:21.432Z,0
2017-04-26T00:19:01.954Z,0
2017-04-26T00:19:42.474Z,0
2017-04-26T00:20:22.987Z,0
2017-04-26T00:21:03.502Z,0
2017-04-26T00:21:44.024Z,0
2017-04-26T00:22:24.556Z,0
2017-04-26T00:23:05.087Z,0
2017-04-26T00:23:45.605Z,0
2017-04-26T00:24:26.128Z,0
2017-04-26T00:25:06.661Z,0
2017-04-26T00:25:47.188Z,0
2017-04-26T00:26:27.711Z,0
2017-04-26T00:27:08.232Z,0
2017-04-26T00:27:48.753Z,0
2017-04-26T00:28:29.267Z,0
2017-04-26T00:29:09.785Z,0
2017-04-26T00:29:50.304Z,0
2017-04-26T00:30:30.832Z,0
2017-04-26T00:31:11.359Z,0
2017-04-26T00:31:51.868Z,0
2017-04-26T00:32:32.382Z,0
2017-04-26T00:33:12.905Z,0
2017-04-26T00:33:53.419Z,0
2017-04-26T00:34:33.936Z,0
2017-04-26T00:35:14.455Z,0
2017-04-26T00:35:54.964Z,0
2017-04-26T00:36:35.484Z,0
2017-04-26T00:37:15.998Z,0
2017-04-26T00:37:56.520Z,0
2017-04-26T00:38:37.055Z,0
2017-04-26T00:39:17.579Z,0
2017-04-26T00:39:58.101Z,0
2017-04-26T00:40:38.613Z,0
2017-04-26T00:41:19.143Z,0
2017-04-26T00:41:59.669Z,0
2017-04-26T00:42:40.184Z,0
2017-04-26T00:43:20.702Z,0
2017-04-26T00:44:01.231Z,0
2017-04-26T00:44:41.752Z,0
2017-04-26T00:45:22.278Z,0
2017-04-26T00:46:02.815Z,0
2017-04-26T00:46:43.340Z,0
2017-04-26T00:47:23.900Z,0
2017-04-26T00:48:04.369Z,0
2017-04-26T00:48:44.885Z,0
2017-04-26T00:49:25.417Z,0
2017-04-26T00:50:05.929Z,0
2017-04-26T00:50:46.459Z,0
2017-04-26T00:51:26.971Z,0
2017-04-26T00:52:07.487Z,0
2017-04-26T00:52:48.012Z,0
2017-04-26T00:53:28.542Z,0
2017-04-26T00:54:09.057Z,0
2017-04-26T00:54:49.589Z,0
2017-04-26T00:55:30.101Z,0
2017-04-26T00:56:10.646Z,0
2017-04-26T00:56:51.164Z,0
2017-04-26T00:57:31.689Z,0
2017-04-26T00:58:12.198Z,0
2017-04-26T00:58:52.721Z,0
2017-04-26T00:59:33.276Z,0
2017-04-26T01:00:13.793Z,0
2017-04-26T01:00:54.329Z,0
2017-04-26T01:01:34.851Z,0
2017-04-26T01:02:15.375Z,0
2017-04-26T01:02:55.874Z,0
2017-04-26T01:03:36.390Z,0
2017-04-26T01:04:16.908Z,0
2017-04-26T01:04:57.429Z,0
2017-04-26T01:05:37.943Z,0
2017-04-26T01:06:18.467Z,0
2017-04-26T01:06:58.992Z,0
2017-04-26T01:07:39.524Z,0
2017-04-26T01:08:20.032Z,0
2017-04-26T01:09:00.557Z,0
2017-04-26T01:09:41.084Z,0
2017-04-26T01:10:21.601Z,0
2017-04-26T01:11:02.141Z,0
2017-04-26T01:11:42.654Z,0
2017-04-26T01:12:23.173Z,0
2017-04-26T01:13:03.689Z,0
2017-04-26T01:13:44.210Z,0
2017-04-26T01:14:24.727Z,0
2017-04-26T01:15:05.254Z,0
2017-04-26T01:15:45.787Z,0
2017-04-26T01:16:26.304Z,0
2017-04-26T01:17:06.812Z,0
2017-04-26T01:17:47.331Z,0
2017-04-26T01:18:27.853Z,0
2017-04-26T01:19:08.371Z,0
2017-04-26T01:19:48.881Z,0
2017-04-26T01:20:29.403Z,0
2017-04-26T01:21:09.925Z,0
2017-04-26T01:21:50.455Z,0
2017-04-26T01:22:30.986Z,0
2017-04-26T01:23:11.505Z,0
2017-04-26T01:23:52.021Z,0
2017-04-26T01:24:32.534Z,0
2017-04-26T01:25:13.051Z,0
2017-04-26T01:25:53.576Z,0
2017-04-26T01:26:34.091Z,0
2017-04-26T01:27:14.609Z,0
2017-04-26T01:27:55.135Z,0
2017-04-26T01:28:35.641Z,0
2017-04-26T01:29:16.162Z,0
2017-04-26T01:29:56.673Z,0
2017-04-26T01:30:37.179Z,0
2017-04-26T01:31:17.702Z,0
2017-04-26T01:31:58.217Z,0
2017-04-26T01:32:38.734Z,0
2017-04-26T01:33:19.260Z,0
2017-04-26T01:33:59.787Z,0
2017-04-26T01:34:40.316Z,0
2017-04-26T01:35:20.822Z,0
2017-04-26T01:36:01.351Z,0
2017-04-26T01:36:41.860Z,0
2017-04-26T01:37:22.378Z,0
2017-04-26T01:38:02.904Z,0
2017-04-26T01:38:43.428Z,0
2017-04-26T01:39:23.942Z,0
2017-04-26T01:40:04.458Z,0
2017-04-26T01:40:44.979Z,0
2017-04-26T01:41:25.501Z,0
2017-04-26T01:42:06.024Z,0
2017-04-26T01:42:46.546Z,0
2017-04-26T01:43:27.056Z,0
2017-04-26T01:44:07.573Z,0
2017-04-26T01:44:48.128Z,0
2017-04-26T01:45:28.649Z,0
2017-04-26T01:46:09.162Z,0
2017-04-26T01:46:49.700Z,0
2017-04-26T01:47:30.210Z,0
2017-04-26T01:48:10.713Z,0
2017-04-26T01:48:51.250Z,0
2017-04-26T01:49:31.773Z,0
2017-04-26T01:50:12.306Z,0
2017-04-26T01:50:52.803Z,0
2017-04-26T01:51:33.322Z,0
2017-04-26T01:52:13.846Z,0
2017-04-26T01:52:54.369Z,0
2017-04-26T01:53:34.890Z,0
2017-04-26T01:54:15.409Z,0
2017-04-26T01:54:55.933Z,0
2017-04-26T01:55:36.459Z,0
2017-04-26T01:56:16.987Z,0
2017-04-26T01:56:57.506Z,0
2017-04-26T01:57:38.029Z,0
2017-04-26T01:58:18.545Z,0
2017-04-26T01:58:59.059Z,0
2017-04-26T01:59:39.579Z,0
2017-04-26T02:00:20.101Z,0
2017-04-26T02:01:00.644Z,0
2017-04-26T02:01:41.144Z,0
2017-04-26T02:02:21.663Z,0
2017-04-26T02:03:02.187Z,0
2017-04-26T02:03:42.703Z,0
2017-04-26T02:04:23.213Z,0
2017-04-26T02:05:03.815Z,0
2017-04-26T02:05:44.301Z,0
2017-04-26T02:06:24.732Z,0
2017-04-26T02:07:05.238Z,0
2017-04-26T02:07:45.765Z,0
2017-04-26T02:08:26.281Z,0
2017-04-26T02:09:06.806Z,0
2017-04-26T02:09:47.321Z,0
2017-04-26T02:10:27.844Z,0
2017-04-26T02:11:08.356Z,0
2017-04-26T02:11:48.877Z,0
2017-04-26T02:12:29.395Z,0
2017-04-26T02:13:09.912Z,0
2017-04-26T02:13:50.435Z,0
2017-04-26T02:14:30.954Z,0
2017-04-26T02:15:11.474Z,0
2017-04-26T02:15:51.993Z,0
2017-04-26T02:16:32.515Z,0
2017-04-26T02:17:13.027Z,0
2017-04-26T02:17:53.541Z,0
2017-04-26T02:18:34.059Z,0
2017-04-26T02:19:14.579Z,0
2017-04-26T02:19:55.127Z,0
2017-04-26T02:20:35.644Z,0
2017-04-26T02:21:16.167Z,0
2017-04-26T02:21:56.683Z,0
2017-04-26T02:22:37.198Z,0
2017-04-26T02:23:17.711Z,0
2017-04-26T02:23:58.224Z,0
2017-04-26T02:24:38.754Z,0
2017-04-26T02:25:19.267Z,0
2017-04-26T02:25:59.798Z,0
2017-04-26T02:26:40.321Z,0
2017-04-26T02:27:20.841Z,0
2017-04-26T02:28:01.369Z,0
2017-04-26T02:28:41.885Z,0
2017-04-26T02:29:22.412Z,0
2017-04-26T02:30:02.926Z,0
2017-04-26T02:30:43.444Z,0
2017-04-26T02:31:23.976Z,0
2017-04-26T02:32:04.485Z,0
2017-04-26T02:32:45.007Z,0
2017-04-26T02:33:25.529Z,0
2017-04-26T02:34:06.040Z,0
2017-04-26T02:34:46.560Z,0
2017-04-26T02:35:27.093Z,0
2017-04-26T02:36:07.590Z,0
2017-04-26T02:36:48.109Z,0
2017-04-26T02:37:28.627Z,0
2017-04-26T02:38:09.144Z,0
2017-04-26T02:38:49.700Z,0
2017-04-26T02:39:30.181Z,0
2017-04-26T02:40:10.695Z,0
2017-04-26T02:40:51.222Z,0
2017-04-26T02:41:31.747Z,0
2017-04-26T02:42:12.265Z,0
2017-04-26T02:42:52.785Z,0
2017-04-26T02:43:33.305Z,0
2017-04-26T02:44:13.834Z,0
2017-04-26T02:44:54.350Z,0
2017-04-26T02:45:34.874Z,0
2017-04-26T02:46:15.402Z,0
2017-04-26T02:46:55.921Z,0
2017-04-26T02:47:36.447Z,0
2017-04-26T02:48:16.968Z,0
2017-04-26T02:48:57.493Z,0
2017-04-26T02:49:38.005Z,0
2017-04-26T02:50:18.517Z,0
2017-04-26T02:50:59.038Z,0
2017-04-26T02:51:39.559Z,0
2017-04-26T02:52:20.076Z,0
2017-04-26T02:53:00.599Z,0
2017-04-26T02:53:41.123Z,0
2017-04-26T02:54:21.644Z,0
2017-04-26T02:55:02.152Z,0
2017-04-26T02:55:42.671Z,0
2017-04-26T02:56:23.201Z,0
2017-04-26T02:57:03.729Z,0
2017-04-26T02:57:44.244Z,0
2017-04-26T02:58:24.773Z,0
2017-04-26T02:59:05.296Z,0
2017-04-26T02:59:45.814Z,0
2017-04-26T03:00:26.336Z,0
2017-04-26T03:01:06.859Z,0
2017-04-26T03:01:47.370Z,0
2017-04-26T03:02:27.898Z,0
2017-04-26T03:03:08.408Z,0
2017-04-26T03:03:48.947Z,0
2017-04-26T03:04:29.465Z,0
2017-04-26T03:05:09.985Z,0
2017-04-26T03:05:50.489Z,0
2017-04-26T03:06:31.018Z,0
2017-04-26T03:07:11.541Z,0
2017-04-26T03:07:52.046Z,0
2017-04-26T03:08:32.563Z,0
2017-04-26T03:09:13.087Z,0
2017-04-26T03:09:53.606Z,0
2017-04-26T03:10:34.142Z,0
2017-04-26T03:11:14.661Z,0
2017-04-26T03:11:55.190Z,0
2017-04-26T03:12:35.736Z,0
2017-04-26T03:13:16.230Z,0
2017-04-26T03:13:56.739Z,0
2017-04-26T03:14:37.263Z,0
2017-04-26T03:15:17.784Z,0
2017-04-26T03:15:58.305Z,0
2017-04-26T03:16:38.816Z,0
2017-04-26T03:17:19.332Z,0
2017-04-26T03:17:59.844Z,0
2017-04-26T03:18:40.359Z,0
2017-04-26T03:19:20.882Z,0
2017-04-26T03:20:01.398Z,0
2017-04-26T03:20:41.919Z,0
2017-04-26T03:21:22.442Z,0
2017-04-26T03:22:02.955Z,0
2017-04-26T03:22:43.478Z,0
2017-04-26T03:23:24.000Z,0
2017-04-26T03:24:04.541Z,0
2017-04-26T03:24:45.065Z,0
2017-04-26T03:25:25.577Z,0
2017-04-26T03:26:06.091Z,0
2017-04-26T03:26:46.603Z,0
2017-04-26T03:27:27.136Z,0
2017-04-26T03:28:07.651Z,0
2017-04-26T03:28:48.171Z,0
2017-04-26T03:29:28.688Z,0
2017-04-26T03:30:09.204Z,0
2017-04-26T03:30:49.745Z,0
2017-04-26T03:31:30.263Z,0
2017-04-26T03:32:10.827Z,0
2017-04-26T03:32:51.343Z,0
2017-04-26T03:33:31.871Z,0
2017-04-26T03:34:12.394Z,0
2017-04-26T03:34:52.912Z,0
2017-04-26T03:35:33.435Z,0
2017-04-26T03:36:13.959Z,0
2017-04-26T03:36:54.477Z,0
2017-04-26T03:37:35.008Z,0
2017-04-26T03:38:15.522Z,0
2017-04-26T03:38:56.051Z,0
2017-04-26T03:39:36.569Z,0
2017-04-26T03:40:17.091Z,0
2017-04-26T03:40:57.612Z,0
2017-04-26T03:41:38.140Z,0
2017-04-26T03:42:18.670Z,0
2017-04-26T03:42:59.187Z,0
2017-04-26T03:43:39.699Z,0
2017-04-26T03:44:20.223Z,0
2017-04-26T03:45:00.739Z,0
2017-04-26T03:45:41.267Z,0
2017-04-26T03:46:21.787Z,0
2017-04-26T03:47:02.304Z,0
2017-04-26T03:47:42.857Z,0
2017-04-26T03:48:23.346Z,0
2017-04-26T03:49:03.862Z,0
2017-04-26T03:49:44.386Z,0
2017-04-26T03:50:24.903Z,0
2017-04-26T03:51:05.425Z,0
2017-04-26T03:51:45.947Z,0
2017-04-26T03:52:26.471Z,0
2017-04-26T03:53:06.992Z,0
2017-04-26T03:53:47.501Z,0
2017-04-26T03:54:28.054Z,0
2017-04-26T03:55:08.536Z,0
2017-04-26T03:55:49.056Z,0
2017-04-26T03:56:29.589Z,0
2017-04-26T03:57:10.129Z,0
2017-04-26T03:57:50.632Z,0
2017-04-26T03:58:31.150Z,0
2017-04-26T03:59:11.670Z,0
2017-04-26T03:59:52.185Z,4
2017-04-26T04:00:32.739Z,4
2017-04-26T04:01:13.267Z,4
2017-04-26T04:01:53.782Z,0
2017-04-26T04:02:34.309Z,0
2017-04-26T04:03:14.833Z,4
2017-04-26T04:03:55.347Z,4
2017-04-26T04:04:35.868Z,4
2017-04-26T04:05:16.378Z,4
2017-04-26T04:05:56.900Z,8
2017-04-26T04:06:37.420Z,4
2017-04-26T04:07:17.934Z,4
2017-04-26T04:07:58.456Z,4
2017-04-26T04:08:38.968Z,8
2017-04-26T04:09:19.488Z,8
2017-04-26T04:10:00.005Z,8
2017-04-26T04:10:40.520Z,8
2017-04-26T04:11:21.036Z,8
2017-04-26T04:12:01.549Z,8
2017-04-26T04:12:42.066Z,8
2017-04-26T04:13:22.604Z,8
2017-04-26T04:14:03.130Z,12
2017-04-26T04:14:43.646Z,12
2017-04-26T04:15:24.176Z,12
2017-04-26T04:16:04.697Z,16
2017-04-26T04:16:45.222Z,16
2017-04-26T04:17:25.741Z,16
2017-04-26T04:18:06.270Z,16
2017-04-26T04:18:46.796Z,20
2017-04-26T04:19:27.329Z,20
2017-04-26T04:20:07.852Z,24
2017-04-26T04:20:48.362Z,24
2017-04-26T04:21:28.899Z,24
2017-04-26T04:22:09.419Z,28
2017-04-26T04:22:49.943Z,32
2017-04-26T04:23:30.461Z,32
2017-04-26T04:24:10.982Z,36
2017-04-26T04:24:51.503Z,36
2017-04-26T04:25:32.023Z,40
2017-04-26T04:26:12.532Z,44
2017-04-26T04:26:53.042Z,44
2017-04-26T04:27:33.561Z,44
2017-04-26T04:28:14.198Z,48
2017-04-26T04:28:54.604Z,52
2017-04-26T04:29:35.126Z,56
2017-04-26T04:30:15.645Z,56
2017-04-26T04:30:56.164Z,60
2017-04-26T04:31:36.677Z,60
2017-04-26T04:32:17.215Z,60
2017-04-26T04:32:57.725Z,60
2017-04-26T04:33:38.246Z,64
2017-04-26T04:34:18.755Z,68
2017-04-26T04:34:59.312Z,76
2017-04-26T04:35:39.782Z,88
2017-04-26T04:36:20.307Z,100
2017-04-26T04:37:00.828Z,112
2017-04-26T04:37:41.344Z,124
2017-04-26T04:38:21.859Z,136
2017-04-26T04:39:02.425Z,144
2017-04-26T04:39:42.977Z,160
2017-04-26T04:40:23.486Z,172
2017-04-26T04:41:03.996Z,180
2017-04-26T04:41:44.517Z,184
2017-04-26T04:42:25.029Z,188
2017-04-26T04:43:05.549Z,196
2017-04-26T04:43:46.074Z,200
2017-04-26T04:44:26.589Z,204
2017-04-26T04:45:07.102Z,204
2017-04-26T04:45:47.636Z,212
2017-04-26T04:46:28.151Z,220
2017-04-26T04:47:08.660Z,224
2017-04-26T04:47:49.171Z,232
2017-04-26T04:48:29.684Z,244
2017-04-26T04:49:10.217Z,260
2017-04-26T04:49:50.721Z,272
2017-04-26T04:50:31.241Z,284
2017-04-26T04:51:11.755Z,296
2017-04-26T04:51:52.272Z,304
2017-04-26T04:52:32.787Z,312
2017-04-26T04:53:13.301Z,320
2017-04-26T04:53:53.855Z,328
2017-04-26T04:54:34.358Z,340
2017-04-26T04:55:14.866Z,356
2017-04-26T04:55:55.389Z,364
2017-04-26T04:56:35.923Z,376
2017-04-26T04:57:16.437Z,388
2017-04-26T04:57:56.960Z,408
2017-04-26T04:58:37.491Z,436
2017-04-26T04:59:18.033Z,464
2017-04-26T04:59:58.543Z,496
2017-04-26T05:00:39.073Z,512
2017-04-26T05:01:19.595Z,516
2017-04-26T05:02:00.101Z,520
2017-04-26T05:02:40.618Z,520
2017-04-26T05:03:21.132Z,528
2017-04-26T05:04:01.643Z,528
2017-04-26T05:04:42.159Z,520
2017-04-26T05:05:22.681Z,508
2017-04-26T05:06:03.199Z,484
2017-04-26T05:06:43.719Z,452
2017-04-26T05:07:24.246Z,420
2017-04-26T05:08:04.769Z,392
2017-04-26T05:08:45.291Z,372
2017-04-26T05:09:25.823Z,360
2017-04-26T05:10:06.360Z,360
2017-04-26T05:10:46.882Z,368
2017-04-26T05:11:27.478Z,384
2017-04-26T05:12:07.998Z,404
2017-04-26T05:12:48.501Z,420
2017-04-26T05:13:29.017Z,428
2017-04-26T05:14:09.570Z,432
2017-04-26T05:14:50.154Z,444
2017-04-26T05:15:30.650Z,456
2017-04-26T05:16:11.159Z,476
2017-04-26T05:16:51.673Z,504
2017-04-26T05:17:32.196Z,520
2017-04-26T05:18:12.716Z,520
2017-04-26T05:18:53.233Z,504
2017-04-26T05:19:33.749Z,480
2017-04-26T05:20:14.261Z,452
2017-04-26T05:20:54.789Z,428
2017-04-26T05:21:35.306Z,408
2017-04-26T05:22:15.893Z,392
2017-04-26T05:22:56.345Z,388
2017-04-26T05:23:36.878Z,392
2017-04-26T05:24:17.478Z,408
2017-04-26T05:24:57.906Z,440
2017-04-26T05:25:38.435Z,496
2017-04-26T05:26:18.947Z,552
2017-04-26T05:26:59.469Z,600
2017-04-26T05:27:39.993Z,656
2017-04-26T05:28:20.543Z,732
2017-04-26T05:29:01.035Z,816
2017-04-26T05:29:41.544Z,876
2017-04-26T05:30:22.134Z,960
2017-04-26T05:31:02.581Z,996
2017-04-26T05:31:43.098Z,1024
2017-04-26T05:32:23.618Z,1056
2017-04-26T05:33:04.143Z,1108
2017-04-26T05:33:44.661Z,1156
2017-04-26T05:34:25.184Z,1180
2017-04-26T05:35:05.723Z,1196
2017-04-26T05:35:46.834Z,1224
2017-04-26T05:36:27.331Z,1256
2017-04-26T05:37:07.884Z,1284
2017-04-26T05:37:48.346Z,1296
2017-04-26T05:38:28.865Z,1292
2017-04-26T05:39:09.397Z,1272
2017-04-26T05:39:49.928Z,1260
2017-04-26T05:40:30.441Z,1268
2017-04-26T05:41:10.968Z,1312
2017-04-26T05:41:51.498Z,1376
2017-04-26T05:42:32.019Z,1448
2017-04-26T05:43:12.529Z,1548
2017-04-26T05:43:53.048Z,1616
2017-04-26T05:44:33.582Z,1668
2017-04-26T05:45:14.098Z,1676
2017-04-26T05:45:54.637Z,1700
2017-04-26T05:46:35.163Z,1712
2017-04-26T05:47:15.685Z,1728
2017-04-26T05:47:56.218Z,1732
2017-04-26T05:48:36.723Z,1720
2017-04-26T05:49:17.256Z,1672
2017-04-26T05:49:57.770Z,1632
2017-04-26T05:50:38.288Z,1604
2017-04-26T05:51:18.825Z,1584
2017-04-26T05:51:59.351Z,1592
2017-04-26T05:52:39.880Z,1612
2017-04-26T05:53:20.391Z,1628
2017-04-26T05:54:00.906Z,1672
2017-04-26T05:54:41.428Z,1700
2017-04-26T05:55:21.937Z,1752
2017-04-26T05:56:02.458Z,1824
2017-04-26T05:56:42.979Z,1912
2017-04-26T05:57:23.491Z,2004
2017-04-26T05:58:04.006Z,2080
2017-04-26T05:58:44.523Z,2144
2017-04-26T05:59:25.042Z,2188
2017-04-26T06:00:05.568Z,2188
2017-04-26T06:00:46.081Z,2164
2017-04-26T06:01:26.598Z,2180
2017-04-26T06:02:07.292Z,2252
2017-04-26T06:02:47.965Z,2368
2017-04-26T06:03:28.562Z,2432
2017-04-26T06:04:09.097Z,2464
2017-04-26T06:04:49.668Z,2504
2017-04-26T06:05:30.173Z,2540
2017-04-26T06:06:10.678Z,2508
2017-04-26T06:06:51.212Z,2520
2017-04-26T06:07:31.733Z,2576
2017-04-26T06:08:12.262Z,2704
2017-04-26T06:08:52.777Z,2888
2017-04-26T06:09:33.294Z,3044
2017-04-26T06:10:13.820Z,3216
2017-04-26T06:10:54.331Z,3404
2017-04-26T06:11:34.856Z,3556
2017-04-26T06:12:15.386Z,4024
2017-04-26T06:12:55.903Z,4316
2017-04-26T06:13:36.440Z,4384
2017-04-26T06:14:16.953Z,4232
2017-04-26T06:14:57.469Z,3928
2017-04-26T06:15:37.996Z,3696
2017-04-26T06:16:18.521Z,3556
2017-04-26T06:16:59.032Z,3436
2017-04-26T06:17:39.562Z,3380
2017-04-26T06:18:20.081Z,3376
2017-04-26T06:19:00.597Z,3364
2017-04-26T06:19:41.125Z,3376
2017-04-26T06:20:21.629Z,3412
2017-04-26T06:21:02.158Z,3500
2017-04-26T06:21:42.680Z,3596
2017-04-26T06:22:23.223Z,3696
2017-04-26T06:23:03.758Z,3796
2017-04-26T06:23:44.856Z,3876
2017-04-26T06:24:25.478Z,3908
2017-04-26T06:25:06.040Z,3912
2017-04-26T06:25:46.534Z,3932
2017-04-26T06:26:27.056Z,3924
2017-04-26T06:27:07.614Z,3952
2017-04-26T06:27:48.147Z,3948
2017-04-26T06:28:28.667Z,3980
2017-04-26T06:29:09.185Z,3980
2017-04-26T06:29:49.710Z,3876
2017-04-26T06:30:30.224Z,3796
2017-04-26T06:31:10.760Z,3640
2017-04-26T06:31:51.298Z,3628
2017-04-26T06:32:31.805Z,3628
2017-04-26T06:33:12.331Z,3596
2017-04-26T06:33:52.857Z,3536
2017-04-26T06:34:33.475Z,3496
2017-04-26T06:35:13.980Z,3496
2017-04-26T06:35:54.515Z,3540
2017-04-26T06:36:35.044Z,3636
2017-04-26T06:37:15.501Z,3704
2017-04-26T06:37:56.047Z,3688
2017-04-26T06:38:36.558Z,3644
2017-04-26T06:39:17.079Z,3628
2017-04-26T06:39:57.613Z,3668
2017-04-26T06:40:38.127Z,3712
2017-04-26T06:41:18.648Z,3756
2017-04-26T06:41:59.163Z,3816
2017-04-26T06:42:39.702Z,3864
2017-04-26T06:43:20.221Z,3896
2017-04-26T06:44:00.743Z,3932
2017-04-26T06:44:41.260Z,3952
2017-04-26T06:45:21.776Z,3956
2017-04-26T06:46:02.291Z,3948
2017-04-26T06:46:42.806Z,3928
2017-04-26T06:47:23.317Z,3920
2017-04-26T06:48:03.840Z,3924
2017-04-26T06:48:44.357Z,3960
2017-04-26T06:49:24.890Z,4012
2017-04-26T06:50:05.410Z,4068
2017-04-26T06:50:45.951Z,4104
2017-04-26T06:51:26.461Z,4108
2017-04-26T06:52:06.993Z,4056
2017-04-26T06:52:47.508Z,3976
2017-04-26T06:53:28.010Z,3860
2017-04-26T06:54:08.540Z,3728
2017-04-26T06:54:49.062Z,3632
2017-04-26T06:55:29.550Z,3616
2017-04-26T06:56:10.271Z,3664
2017-04-26T06:56:50.620Z,3744
2017-04-26T06:57:31.149Z,3812
2017-04-26T06:58:11.685Z,3832
2017-04-26T06:58:52.212Z,3844
2017-04-26T06:59:32.747Z,3924
2017-04-26T07:00:13.500Z,4052
2017-04-26T07:00:53.861Z,4220
2017-04-26T07:01:34.368Z,4388
2017-04-26T07:02:14.887Z,4572
2017-04-26T07:02:55.408Z,4748
2017-04-26T07:03:35.929Z,4908
2017-04-26T07:04:16.440Z,5056
2017-04-26T07:04:56.961Z,5200
2017-04-26T07:05:37.481Z,5312
2017-04-26T07:06:17.997Z,5412
2017-04-26T07:06:58.515Z,5488
2017-04-26T07:07:39.030Z,5532
2017-04-26T07:08:19.546Z,5540
2017-04-26T07:09:00.085Z,5528
2017-04-26T07:09:40.639Z,5512
2017-04-26T07:10:21.148Z,5488
2017-04-26T07:11:01.672Z,5404
2017-04-26T07:11:42.187Z,5364
2017-04-26T07:12:22.698Z,5324
2017-04-26T07:13:03.219Z,5348
2017-04-26T07:13:43.740Z,5468
2017-04-26T07:14:24.257Z,5624
2017-04-26T07:15:04.776Z,5800
2017-04-26T07:15:45.306Z,5960
2017-04-26T07:16:25.823Z,6068
2017-04-26T07:17:06.327Z,6184
2017-04-26T07:17:46.840Z,6328
2017-04-26T07:18:27.364Z,6436
2017-04-26T07:19:07.880Z,6432
2017-04-26T07:19:48.418Z,6416
2017-04-26T07:20:28.947Z,6448
2017-04-26T07:21:09.485Z,6636
2017-04-26T07:21:49.989Z,6800
2017-04-26T07:22:30.510Z,6952
2017-04-26T07:23:11.033Z,7028
2017-04-26T07:23:51.556Z,7360
2017-04-26T07:24:32.096Z,7640
2017-04-26T07:25:12.630Z,7836
2017-04-26T07:25:53.141Z,7904
2017-04-26T07:26:33.663Z,7948
2017-04-26T07:27:14.183Z,8000
2017-04-26T07:27:54.712Z,8008
2017-04-26T07:28:35.287Z,8032
2017-04-26T07:29:15.807Z,8080
2017-04-26T07:29:56.321Z,8036
2017-04-26T07:30:36.844Z,8084
2017-04-26T07:31:17.362Z,8036
2017-04-26T07:31:57.882Z,8032
2017-04-26T07:32:38.403Z,7920
2017-04-26T07:33:18.973Z,7904
2017-04-26T07:33:59.477Z,7860
2017-04-26T07:34:40.021Z,7780
2017-04-26T07:35:20.571Z,7872
2017-04-26T07:36:01.095Z,8056
2017-04-26T07:36:41.610Z,8376
2017-04-26T07:37:22.140Z,8388
2017-04-26T07:38:02.649Z,8668
2017-04-26T07:38:43.168Z,9132
2017-04-26T07:39:23.685Z,9380
2017-04-26T07:40:04.217Z,9840
2017-04-26T07:40:44.725Z,9476
2017-04-26T07:41:25.275Z,9224
2017-04-26T07:42:05.815Z,9384
2017-04-26T07:42:46.360Z,9328
2017-04-26T07:43:26.883Z,9244
2017-04-26T07:44:07.403Z,9256
2017-04-26T07:44:47.919Z,8984
2017-04-26T07:45:28.445Z,9172
2017-04-26T07:46:08.961Z,8944
2017-04-26T07:46:49.484Z,8740
2017-04-26T07:47:30.000Z,8584
2017-04-26T07:48:10.531Z,8204
2017-04-26T07:48:51.239Z,7788
2017-04-26T07:49:31.824Z,7192
2017-04-26T07:50:12.337Z,7016
2017-04-26T07:50:52.853Z,7152
2017-04-26T07:51:33.377Z,7144
2017-04-26T07:52:13.909Z,6572
2017-04-26T07:52:54.468Z,6016
2017-04-26T07:53:34.997Z,5560
2017-04-26T07:54:15.526Z,4988
2017-04-26T07:54:56.045Z,4468
2017-04-26T07:55:36.564Z,4224
2017-04-26T07:56:17.086Z,3896
2017-04-26T07:56:57.612Z,3448
2017-04-26T07:57:38.144Z,3192
2017-04-26T07:58:18.663Z,3012
2017-04-26T07:58:59.181Z,2860
2017-04-26T07:59:39.701Z,2676
2017-04-26T08:00:20.242Z,2524
2017-04-26T08:01:00.767Z,2492
2017-04-26T08:01:41.291Z,2544
2017-04-26T08:02:21.802Z,2712
2017-04-26T08:03:02.348Z,2856
2017-04-26T08:03:42.885Z,2848
2017-04-26T08:04:23.462Z,2836
2017-04-26T08:05:03.984Z,2876
2017-04-26T08:05:44.522Z,2928
2017-04-26T08:06:25.059Z,2988
2017-04-26T08:07:05.584Z,3020
2017-04-26T08:07:46.096Z,3044
2017-04-26T08:08:26.624Z,3056
2017-04-26T08:09:07.141Z,3016
2017-04-26T08:09:47.654Z,2904
2017-04-26T08:10:28.176Z,2796
2017-04-26T08:11:08.696Z,2704
2017-04-26T08:11:49.221Z,2644
2017-04-26T08:12:29.745Z,2608
2017-04-26T08:13:10.262Z,2576
2017-04-26T08:13:50.790Z,2524
2017-04-26T08:14:31.322Z,2476
2017-04-26T08:15:11.847Z,2448
2017-04-26T08:15:52.372Z,2452
2017-04-26T08:16:32.887Z,2476
2017-04-26T08:17:13.412Z,2532
2017-04-26T08:17:53.929Z,2604
2017-04-26T08:18:34.414Z,2684
2017-04-26T08:19:14.952Z,2748
2017-04-26T08:19:55.472Z,2800
2017-04-26T08:20:35.995Z,2848
2017-04-26T08:21:16.533Z,2900
2017-04-26T08:21:57.083Z,2916
2017-04-26T08:22:37.605Z,2924
2017-04-26T08:23:18.117Z,2948
2017-04-26T08:23:58.645Z,2896
2017-04-26T08:24:39.151Z,2816
2017-04-26T08:25:19.682Z,2708
2017-04-26T08:26:00.213Z,2612
2017-04-26T08:26:40.725Z,2484
2017-04-26T08:27:21.254Z,2352
2017-04-26T08:28:01.778Z,2324
2017-04-26T08:28:42.293Z,2344
2017-04-26T08:29:22.815Z,2332
2017-04-26T08:30:03.342Z,2260
2017-04-26T08:30:43.867Z,2156
2017-04-26T08:31:24.382Z,2036
2017-04-26T08:32:04.914Z,1960
2017-04-26T08:32:45.438Z,1956
2017-04-26T08:33:25.962Z,2044
2017-04-26T08:34:06.483Z,2212
2017-04-26T08:34:46.993Z,2488
2017-04-26T08:35:27.511Z,2904
2017-04-26T08:36:08.033Z,3340
2017-04-26T08:36:48.537Z,3648
2017-04-26T08:37:29.065Z,3752
2017-04-26T08:38:09.570Z,3732
2017-04-26T08:38:50.091Z,3640
2017-04-26T08:39:30.601Z,3424
2017-04-26T08:40:11.128Z,3128
2017-04-26T08:40:51.668Z,2920
2017-04-26T08:42:49.858Z,2572
2017-04-26T08:43:30.418Z,2532
2017-04-26T08:45:29.591Z,2600
2017-04-26T08:46:10.108Z,2700
2017-04-26T08:46:50.645Z,2840
2017-04-26T08:47:31.164Z,3032
2017-04-26T08:48:11.691Z,3312
2017-04-26T08:48:52.214Z,3576
2017-04-26T08:49:32.739Z,3764
2017-04-26T08:50:13.279Z,3916
2017-04-26T08:50:54.287Z,4044
2017-04-26T08:51:34.806Z,4172
2017-04-26T08:52:15.332Z,4408
2017-04-26T08:52:55.849Z,4688
2017-04-26T08:53:36.372Z,4972
2017-04-26T08:54:16.903Z,5288
2017-04-26T08:54:57.441Z,5688
2017-04-26T08:55:37.955Z,6036
2017-04-26T08:56:18.508Z,6360
2017-04-26T08:56:59.065Z,6692
2017-04-26T08:57:39.570Z,6968
2017-04-26T08:58:20.093Z,7148
2017-04-26T08:59:00.613Z,7240
2017-04-26T08:59:41.147Z,7320
2017-04-26T09:00:21.667Z,7408
2017-04-26T09:01:02.189Z,7484
2017-04-26T09:03:30.725Z,7384
2017-04-26T09:04:11.246Z,7472
2017-04-26T09:04:51.781Z,7544
2017-04-26T09:05:32.391Z,7616
2017-04-26T09:06:12.962Z,7612
2017-04-26T09:06:53.511Z,7628
2017-04-26T09:07:34.037Z,7656
2017-04-26T09:08:14.561Z,7756
2017-04-26T09:08:55.067Z,7856
2017-04-26T09:09:35.587Z,7980
2017-04-26T09:10:16.111Z,8036
2017-04-26T09:10:56.627Z,8088
2017-04-26T09:11:37.165Z,8040
2017-04-26T09:12:17.685Z,8000
2017-04-26T09:12:58.226Z,7852
2017-04-26T09:13:38.763Z,7652
2017-04-26T09:14:19.290Z,7500
2017-04-26T09:14:59.801Z,7380
2017-04-26T09:15:40.326Z,7296
2017-04-26T09:16:20.838Z,7220
2017-04-26T09:17:01.368Z,7188
2017-04-26T09:17:41.886Z,7180
2017-04-26T09:18:22.410Z,7264
2017-04-26T09:19:02.943Z,7412
2017-04-26T09:19:43.467Z,7572
2017-04-26T09:20:24.030Z,7772
2017-04-26T09:22:42.386Z,7836
2017-04-26T09:23:22.905Z,7812
2017-04-26T09:24:03.426Z,7788
2017-04-26T09:24:43.946Z,7780
2017-04-26T09:25:24.507Z,7724
2017-04-26T09:26:05.001Z,7580
2017-04-26T09:26:45.525Z,7360
2017-04-26T09:27:26.058Z,7072
2017-04-26T09:28:06.571Z,6736
2017-04-26T09:28:47.093Z,6392
2017-04-26T09:29:27.619Z,6128
2017-04-26T09:30:08.145Z,5932
2017-04-26T09:30:48.662Z,5796
2017-04-26T09:31:29.209Z,5696
2017-04-26T09:32:09.736Z,5612
2017-04-26T09:32:50.264Z,5556
2017-04-26T09:33:30.813Z,5544
2017-04-26T09:34:11.337Z,5484